Thunder radar more information blitzortung!


Rain radar more information rain snow radar


altri nostri siti meteo:

PomeziameteoStazione ufficiale di Pomezia

MeteopomeziaSito sulle condizioni meteo



Problemi di comunicazione, Vai direttamente al sito di Meteoalarm : www.meteoalarm.eu e controlla gli allarmi .

Report METAR

   
LIMP - Parma
Dati ricevuti: 02-03-2024 22:50
DATI Obsoleti
Nebbia, Molto nuvoloso  
Nebbia, Molto nuvoloso  
   Vento: Oriente 5.6 km/h
Vento: Oriente 5.6 km/h
Temperatura: 10°C
Temperatura Vento: 9°C
P.to Rugiada: 9°C
Umidita: 94%
Barometro: 1009 hPa
Nuvole: Molto nuvoloso
Visibilita: 5 km
dettagli cloud: Molto nuvoloso 1000 ft
LIMP 022150Z 09003KT 5000 BR BKN010 10/09 Q1009
LIPE - Bologna
Dati ricevuti: 03-03-2024 02:50
Molto nuvoloso  
Molto nuvoloso  
   Vento: SE 20.4 km/h
Vento: SE 20.4 km/h
Temperatura: 12°C
P.to Rugiada: 6°C
Umidita: 67%
Barometro: 1008 hPa
Nuvole: Molto nuvoloso
Visibilita: oltre 10 km
dettagli cloud: Molto nuvoloso 23000 ft
LIPE 030150Z AUTO 14011KT 9999 BKN230/// 12/06 Q1008
LIPO - Brescia/Montichi
Dati ricevuti: 03-03-2024 02:50
Poche nuvole  
Poche nuvole  
   Vento: NE 13 km/h
Vento: NE 13 km/h
Temperatura: 9°C
Temperatura Vento: 7°C
P.to Rugiada: 8°C
Umidita: 94%
Barometro: 1008 hPa
Nuvole: Poche nuvole
Visibilita: oltre 10 km
dettagli cloud: Poche nuvole 21000 ft
LIPO 030150Z AUTO 03007KT 9999 FEW210/// 09/08 Q1008
LIPF - Ferrara
Dati ricevuti: 01-03-2024 18:55
DATI Obsoleti
Molto nuvoloso  
Molto nuvoloso  
   Vento: NE 14.8 km/h
Vento: NE 14.8 km/h
Temperatura: 14°C
P.to Rugiada: 13°C
Umidita: 94%
Barometro: 1004 hPa
Nuvole: Molto nuvoloso
Visibilita: oltre 10 km
dettagli cloud: Molto nuvoloso 2000 ft
LIPF 011755Z 03008KT 9999 BKN020 14/13 Q1004
LIPL - Ghedi
Dati ricevuti: 03-03-2024 01:55
Molto nuvoloso  
Molto nuvoloso  
   Vento: NE 14.8 km/h
Vento: NE 14.8 km/h
Temperatura: 8°C
Temperatura Vento: 6°C
P.to Rugiada: 8°C
Umidita: 100%
Barometro: 1008 hPa
Nuvole: Molto nuvoloso
Visibilita: oltre 10 km
dettagli cloud: Molto nuvoloso 8000 ft
LIPL 030055Z 06008KT 9999 BKN080 08/08 Q1008
LIVC - Monte Cimone
Dati ricevuti: 03-03-2024 01:55
  
  
   Vento: S 31.5 km/h<br />Gust to 31.5 km/h
Vento: S 31.5 km/h
Gust to 31.5 km/h
Temperatura: 1°C
Temperatura Vento: -6°C
P.to Rugiada: -1°C
Umidita: 87%
Barometro: 1006 hPa
LIVC 030055Z AUTO 20017G38KT //// 01/M01 Q1006
LIMS - Piacenza
Dati ricevuti: 02-03-2024 18:55
DATI Obsoleti
Parzialmente nuvoloso  
Parzialmente nuvoloso  
   Vento: SE 9.3 km/h
Vento: SE 9.3 km/h
Temperatura: 11°C
P.to Rugiada: 11°C
Umidita: 100%
Barometro: 1007 hPa
Nuvole: Parzialmente nuvoloso
Visibilita: 6 km
dettagli cloud: Parzialmente nuvoloso 600 ft,
Parzialmente nuvoloso 1200 ft
LIMS 021755Z 13005KT 6000 SCT006 SCT012 11/11 Q1007
LIMT - Passo della Cisa
Dati ricevuti: 23-09-2019 13:55
DATI Obsoleti
Nebbia  
Nebbia  
   Vento: calma
Vento: calma
Temperatura: 10°C
P.to Rugiada: 10°C
Umidita: 100%
Barometro: 1014 hPa
Visibilita: 0 km
dettagli cloud: Coperto
LIMT 231155Z 00000KT 0000 FG VV/// 10/10 Q1014 RMK MON INVIS VAL INVIS VIS MIN 0000
LIPU - Padova
Dati ricevuti: 02-03-2024 15:50
DATI Obsoleti
Pioggia, Nearby Showers, Molto nuvoloso  
Pioggia, Nearby Showers, Molto nuvoloso  
   Vento: NE 9.3 km/h
Vento: NE 9.3 km/h
Temperatura: 12°C
P.to Rugiada: 11°C
Umidita: 94%
Barometro: 1009 hPa
Nuvole: Molto nuvoloso
Visibilita: 8 km
dettagli cloud: Parzialmente nuvoloso 1000 ft,
Molto nuvoloso 2000 ft
LIPU 021450Z 04005KT 8000 RA VCSH SCT010 BKN020 12/11 Q1009

Script sviluppato da  Saratoga-weather.org Adattato per il modello da  Weerstation Leuven

Strumentazione usata:

Stazione meteo
Davis VP2

Programma gestore dati meteo
WVIEW

Server per i dati meteo
Pc-WDS5

Provider
Pc-WDS5

Davis VP2

WVIEW

Pc-WDS5

Pc-WDS5